Terminal Aerodrome Forecast
Issued by NWS North Platte, NE

Home | Current Version | Previous Version | Text Only | Print | Product List | Glossary Off
Versions: 1 2 3 4 5 6 7 8 9 10 11 12 13

000
FTUS43 KLBF 251100
TAFVTN
TAF
KVTN 251135Z 2512/2612 32014G20KT P6SM SCT050
     FM252100 29011KT P6SM SCT200
     FM260000 25007KT P6SM BKN120
     FM260600 27008KT P6SM SKC=

USA.gov is the U.S. government's official web portal to all federal, state and local government web resources and services.